Time;durP1;ratioP1;P1;durP2;ratioP2;P2;SDS_P1;SDS_P2;PMS_P1;PMS_P2;Temp;Humidity;BMP_temperature;BMP_pressure;BME280_temperature;BME280_humidity;BME280_pressure;Samples;Min_cycle;Max_cycle;Signal;HPM_P1;HPM_P2
2022/11/06 00:00:57;;;;;;;4.97;2.85;;;;;;;10.81;100.00;98953.41;7396728;19;20091;-64
2022/11/06 00:03:24;;;;;;;13.00;3.15;;;;;;;10.87;100.00;98951.44;7393095;19;20470;-65
2022/11/06 00:08:42;;;;;;;10.30;3.75;;;;;;;10.87;100.00;98935.47;7397207;19;20534;-64
2022/11/06 00:11:13;;;;;;;5.03;2.33;;;;;;;10.84;100.00;98932.94;7396171;19;20010;-64
2022/11/06 00:13:40;;;;;;;3.13;2.03;;;;;;;10.81;100.00;98933.91;7393775;19;20010;-64
2022/11/06 00:16:08;;;;;;;7.05;4.07;;;;;;;10.77;100.00;98941.75;7392831;19;20340;-65
2022/11/06 00:18:35;;;;;;;9.85;3.00;;;;;;;10.68;100.00;98933.63;7394424;19;20018;-64
2022/11/06 00:21:07;;;;;;;13.80;3.70;;;;;;;10.62;100.00;98934.34;7396577;19;20483;-65
2022/11/06 00:23:33;;;;;;;;;;;;;;;10.64;100.00;98929.06;7398269;19;20011;-64
2022/11/06 00:25:59;;;;;;;3.15;2.60;;;;;;;10.58;100.00;98925.47;7393796;19;19946;-65
2022/11/06 00:28:25;;;;;;;6.30;2.88;;;;;;;10.52;100.00;98929.50;7397338;19;20007;-65
2022/11/06 00:31:03;;;;;;;9.98;3.03;;;;;;;10.46;100.00;98923.13;7395251;19;20014;-64
2022/11/06 00:33:29;;;;;;;6.50;2.08;;;;;;;10.50;100.00;98923.66;7402494;19;20048;-65
2022/11/06 00:35:56;;;;;;;5.78;2.83;;;;;;;10.46;100.00;98914.78;7400657;19;20353;-64
2022/11/06 00:38:22;;;;;;;17.50;3.55;;;;;;;10.38;100.00;98913.69;7401830;19;20018;-65
2022/11/06 00:40:48;;;;;;;16.02;4.18;;;;;;;10.38;100.00;98911.69;7402752;19;20033;-65
2022/11/06 00:43:14;;;;;;;9.73;2.28;;;;;;;10.43;100.00;98908.19;7400331;19;20023;-64
2022/11/06 00:45:41;;;;;;;5.88;2.60;;;;;;;10.40;100.00;98906.38;7401924;19;20018;-65
2022/11/06 00:48:07;;;;;;;9.18;2.88;;;;;;;10.45;100.00;98916.81;7401639;19;20015;-64
2022/11/06 00:50:33;;;;;;;4.90;1.80;;;;;;;10.46;100.00;98912.75;7402267;19;20405;-64
2022/11/06 00:52:59;;;;;;;21.00;3.30;;;;;;;10.52;100.00;98910.78;7401480;19;20011;-64
2022/11/06 00:55:25;;;;;;;4.47;2.40;;;;;;;10.53;100.00;98911.50;7404751;19;20078;-64
2022/11/06 00:57:51;;;;;;;12.20;3.53;;;;;;;10.44;100.00;98909.69;7400962;19;20018;-64
2022/11/06 01:00:19;;;;;;;14.93;3.20;;;;;;;10.44;100.00;98906.91;7403487;19;20010;-64
2022/11/06 01:02:45;;;;;;;4.68;2.08;;;;;;;10.43;100.00;98899.84;7402618;19;20329;-64
2022/11/06 01:05:13;;;;;;;5.35;2.83;;;;;;;10.29;100.00;98899.97;7400603;19;20367;-65
2022/11/06 01:07:40;;;;;;;12.32;3.03;;;;;;;10.24;100.00;98890.38;7399090;19;20499;-65
2022/11/06 01:10:06;;;;;;;5.20;2.67;;;;;;;10.08;100.00;98890.22;7400467;19;20007;-65
2022/11/06 01:12:34;;;;;;;3.53;2.05;;;;;;;10.00;100.00;98880.81;7400997;19;20363;-64
2022/11/06 01:15:00;;;;;;;5.18;2.38;;;;;;;9.87;100.00;98881.22;7399426;19;20026;-64
2022/11/06 01:17:27;;;;;;;5.43;2.72;;;;;;;9.73;100.00;98884.91;7399226;19;20343;-64
2022/11/06 01:19:53;;;;;;;5.75;2.95;;;;;;;9.53;100.00;98871.84;7399192;19;20010;-64
2022/11/06 01:22:19;;;;;;;7.90;3.08;;;;;;;9.37;100.00;98878.03;7395145;19;20022;-63
2022/11/06 01:24:46;;;;;;;9.05;3.15;;;;;;;9.26;100.00;98880.69;7397418;19;20347;-64
2022/11/06 01:27:12;;;;;;;5.63;2.00;;;;;;;9.15;100.00;98873.00;7398745;19;20019;-64
2022/11/06 01:29:38;;;;;;;3.28;2.00;;;;;;;9.05;100.00;98877.19;7400036;19;20003;-63
2022/11/06 01:32:05;;;;;;;6.10;3.35;;;;;;;8.91;100.00;98866.94;7401532;19;20011;-64
2022/11/06 01:34:31;;;;;;;4.60;3.60;;;;;;;8.74;100.00;98874.31;7398060;19;20415;-63
2022/11/06 01:36:57;;;;;;;8.40;2.47;;;;;;;8.69;100.00;98865.91;7397812;19;20406;-64
2022/11/06 01:39:23;;;;;;;3.70;2.05;;;;;;;8.69;100.00;98866.69;7396658;19;20010;-63
2022/11/06 01:41:51;;;;;;;9.57;2.30;;;;;;;8.74;100.00;98857.66;7401114;19;20030;-63
2022/11/06 01:44:32;;;;;;;6.50;1.65;;;;;;;8.74;100.00;98846.56;7397735;19;20026;-64
2022/11/06 01:47:04;;;;;;;5.60;2.40;;;;;;;8.89;100.00;98841.69;7397427;19;20026;-64
2022/11/06 01:49:33;;;;;;;;;;;;;;;8.93;100.00;98828.34;7398575;19;20066;-63
2022/11/06 01:52:06;;;;;;;8.30;3.22;;;;;;;8.95;100.00;98836.94;7394847;19;19921;-63
2022/11/06 01:54:35;;;;;;;6.78;2.78;;;;;;;9.02;100.00;98833.75;7399045;19;20014;-63
2022/11/06 01:57:03;;;;;;;18.20;2.60;;;;;;;9.15;100.00;98825.03;7397864;19;20016;-63
2022/11/06 01:59:34;;;;;;;10.93;3.45;;;;;;;9.29;100.00;98831.72;7395532;19;20007;-63
2022/11/06 02:02:01;;;;;;;8.45;2.63;;;;;;;9.30;100.00;98819.34;7396372;19;20021;-64
2022/11/06 02:04:34;;;;;;;4.90;1.90;;;;;;;9.33;100.00;98812.81;7397354;19;20014;-64
2022/11/06 02:07:01;;;;;;;26.33;4.47;;;;;;;9.37;100.00;98821.69;7397955;19;20014;-64
2022/11/06 02:09:30;;;;;;;9.93;3.72;;;;;;;9.46;100.00;98810.41;7398286;19;20023;-63
2022/11/06 02:12:01;;;;;;;16.02;1.85;;;;;;;9.59;100.00;98819.09;7399410;19;20015;-63
2022/11/06 02:14:45;;;;;;;7.13;1.98;;;;;;;9.68;100.00;98805.00;7399642;19;20044;-64
2022/11/06 02:17:23;;;;;;;10.30;2.55;;;;;;;9.79;100.00;98807.84;7396975;19;20007;-63
2022/11/06 02:20:14;;;;;;;11.35;2.85;;;;;;;9.89;100.00;98798.06;7396962;19;20073;-64
2022/11/06 02:22:43;;;;;;;3.13;2.10;;;;;;;9.95;100.00;98801.63;7397232;19;20010;-63
2022/11/06 02:25:21;;;;;;;18.35;4.25;;;;;;;10.12;100.00;98799.72;7396760;19;20501;-64
2022/11/06 02:28:30;;;;;;;3.92;3.20;;;;;;;10.33;100.00;98798.31;7397168;19;20011;-64
2022/11/06 02:30:59;;;;;;;8.02;3.13;;;;;;;10.52;100.00;98788.28;7399211;19;20017;-64
2022/11/06 02:33:33;;;;;;;6.60;2.22;;;;;;;10.68;100.00;98779.22;7397679;19;20459;-64
2022/11/06 02:36:14;;;;;;;12.98;2.10;;;;;;;10.91;100.00;98779.28;7396019;19;20455;-64
2022/11/06 02:38:45;;;;;;;6.18;3.05;;;;;;;11.00;100.00;98765.09;7396222;19;20082;-64
2022/11/06 02:41:17;;;;;;;4.03;2.13;;;;;;;11.12;100.00;98774.97;7399809;19;20015;-64
2022/11/06 02:43:49;;;;;;;6.78;2.45;;;;;;;11.02;100.00;98773.72;7396093;19;20018;-64
2022/11/06 02:46:23;;;;;;;5.70;2.67;;;;;;;11.20;100.00;98762.06;7393963;19;20029;-64
2022/11/06 02:48:57;;;;;;;6.18;2.45;;;;;;;11.23;100.00;98761.06;7396005;19;20356;-64
2022/11/06 02:51:27;;;;;;;10.85;3.67;;;;;;;11.11;100.00;98765.13;7399088;19;20021;-64
2022/11/06 02:53:58;;;;;;;12.40;3.78;;;;;;;11.23;100.00;98763.84;7395280;19;20021;-64
2022/11/06 02:56:28;;;;;;;13.20;4.40;;;;;;;11.33;100.00;98753.94;7395563;19;20427;-64
2022/11/06 02:59:03;;;;;;;9.55;2.50;;;;;;;11.43;100.00;98746.88;7395947;19;20017;-64
2022/11/06 03:01:38;;;;;;;19.15;3.65;;;;;;;11.51;100.00;98750.66;7398843;19;20027;-63
2022/11/06 03:04:15;;;;;;;5.25;2.63;;;;;;;11.60;100.00;98750.41;7394787;19;20006;-63
2022/11/06 03:06:47;;;;;;;6.25;2.10;;;;;;;11.67;100.00;98740.78;7395291;19;20011;-63
2022/11/06 03:09:20;;;;;;;5.32;2.38;;;;;;;11.63;100.00;98732.63;7395027;19;20030;-63
2022/11/06 03:11:59;;;;;;;10.38;2.05;;;;;;;11.67;100.00;98727.59;7396306;19;20017;-63
2022/11/06 03:14:35;;;;;;;11.70;3.45;;;;;;;11.64;100.00;98728.59;7394625;19;20518;-63
2022/11/06 03:17:06;;;;;;;7.22;1.63;;;;;;;11.60;100.00;98724.53;7394553;19;20029;-63
2022/11/06 03:20:08;;;;;;;7.30;2.90;;;;;;;11.66;100.00;98714.13;7394977;19;20011;-63
2022/11/06 03:22:34;;;;;;;;;;;;;;;11.67;100.00;98704.53;7393993;19;20017;-63
2022/11/06 03:25:21;;;;;;;4.97;1.88;;;;;;;11.68;100.00;98711.63;7395702;19;20246;-63
2022/11/06 03:28:00;;;;;;;13.23;2.97;;;;;;;11.72;100.00;98709.31;7395016;19;20007;-64
2022/11/06 03:30:27;;;;;;;5.47;3.03;;;;;;;11.80;100.00;98713.13;7396527;19;20070;-64
2022/11/06 03:33:00;;;;;;;6.28;2.75;;;;;;;11.61;100.00;98700.97;7395018;19;20018;-64
2022/11/06 03:35:39;;;;;;;9.15;3.58;;;;;;;11.76;100.00;98690.31;7394771;19;20088;-63
2022/11/06 03:38:15;;;;;;;3.30;1.80;;;;;;;11.68;100.00;98687.28;7395517;19;20014;-64
2022/11/06 03:40:46;;;;;;;9.02;2.67;;;;;;;11.68;100.00;98684.50;7397024;19;20015;-64
2022/11/06 03:43:16;;;;;;;2.30;1.53;;;;;;;11.75;100.00;98678.38;7394058;19;20021;-64
2022/11/06 03:45:44;;;;;;;4.47;1.27;;;;;;;11.71;100.00;98666.75;7394530;19;20224;-64
2022/11/06 03:48:19;;;;;;;3.17;1.52;;;;;;;11.67;100.00;98669.03;7393650;19;20014;-64
2022/11/06 03:51:03;;;;;;;6.47;1.85;;;;;;;11.70;100.00;98664.44;7396047;19;20011;-64
2022/11/06 03:53:45;;;;;;;8.23;3.22;;;;;;;11.81;100.00;98661.63;7393114;19;20035;-64
2022/11/06 03:56:17;;;;;;;7.22;2.28;;;;;;;11.87;100.00;98660.34;7393870;19;20010;-63
2022/11/06 03:58:47;;;;;;;1.58;1.42;;;;;;;11.94;100.00;98662.59;7393683;19;20343;-64
2022/11/06 04:01:15;;;;;;;10.57;2.22;;;;;;;11.93;100.00;98649.91;7397780;19;20494;-63
2022/11/06 04:03:51;;;;;;;4.00;1.45;;;;;;;11.94;100.00;98648.63;7394648;19;20017;-64
2022/11/06 04:06:25;;;;;;;13.48;2.60;;;;;;;11.93;100.00;98647.13;7392983;19;20031;-64
2022/11/06 04:14:30;;;;;;;21.20;3.17;;;;;;;11.92;100.00;98631.66;7394288;19;20014;-63
2022/11/06 04:17:01;;;;;;;6.45;1.60;;;;;;;12.00;100.00;98626.28;7393561;19;20019;-64
2022/11/06 04:19:27;;;;;;;8.45;0.95;;;;;;;12.02;100.00;98634.91;7394571;19;20030;-64
2022/11/06 04:21:56;;;;;;;3.00;2.38;;;;;;;11.97;100.00;98625.31;7392905;19;20454;-64
2022/11/06 04:27:37;;;;;;;4.50;2.13;;;;;;;12.03;100.00;98620.44;7392218;19;20014;-63
2022/11/06 04:30:09;;;;;;;12.70;2.78;;;;;;;11.95;100.00;98613.88;7394530;19;20078;-64
2022/11/06 04:32:44;;;;;;;3.45;1.48;;;;;;;12.12;100.00;98613.81;7393271;19;20038;-63
2022/11/06 04:35:24;;;;;;;5.05;1.55;;;;;;;12.02;100.00;98607.75;7393611;19;20458;-64
2022/11/06 04:38:02;;;;;;;10.07;2.10;;;;;;;11.97;100.00;98600.19;7393660;19;20013;-64
2022/11/06 04:40:38;;;;;;;3.25;1.63;;;;;;;11.83;100.00;98601.25;7393515;19;20018;-64
2022/11/06 04:43:17;;;;;;;5.40;1.33;;;;;;;11.86;100.00;98599.47;7396273;19;20017;-63
2022/11/06 04:45:48;;;;;;;3.60;1.95;;;;;;;11.91;100.00;98599.44;7396725;19;20015;-64
2022/11/06 04:48:16;;;;;;;1.67;1.00;;;;;;;11.84;100.00;98594.44;7390497;19;20363;-63
2022/11/06 04:50:49;;;;;;;1.38;0.88;;;;;;;11.70;100.00;98595.50;7393985;19;20027;-63
2022/11/06 04:53:17;;;;;;;5.22;2.08;;;;;;;11.74;100.00;98595.97;7391764;19;20550;-63
2022/11/06 04:55:50;;;;;;;11.80;1.95;;;;;;;11.75;100.00;98589.13;7392180;19;20355;-63
2022/11/06 04:58:16;;;;;;;9.50;2.33;;;;;;;11.75;100.00;98582.78;7390861;19;20040;-63
2022/11/06 05:00:47;;;;;;;12.20;2.13;;;;;;;11.94;100.00;98584.47;7395204;19;20011;-63
2022/11/06 05:03:14;;;;;;;4.13;2.00;;;;;;;12.02;100.00;98579.84;7392160;19;20011;-64
2022/11/06 05:05:41;;;;;;;3.58;1.25;;;;;;;12.06;100.00;98571.97;7391878;19;20011;-64
2022/11/06 05:08:14;;;;;;;7.07;2.55;;;;;;;12.05;100.00;98573.25;7391632;19;20040;-59
2022/11/06 05:10:41;;;;;;;3.22;1.63;;;;;;;12.13;100.00;98582.56;7392662;19;20326;-59
2022/11/06 05:15:55;;;;;;;3.13;1.05;;;;;;;12.12;100.00;98563.56;7392697;19;20006;-59
2022/11/06 05:18:21;;;;;;;4.50;2.08;;;;;;;12.12;100.00;98561.53;7396248;19;20082;-59
2022/11/06 05:20:47;;;;;;;9.35;1.98;;;;;;;12.14;100.00;98563.81;7403353;19;20010;-59
2022/11/06 05:23:14;;;;;;;11.60;2.85;;;;;;;12.15;100.00;98560.50;7400448;19;20006;-59
2022/11/06 05:25:41;;;;;;;2.33;1.73;;;;;;;12.31;100.00;98558.09;7400033;19;20471;-59
2022/11/06 05:28:07;;;;;;;15.13;2.97;;;;;;;12.42;100.00;98563.59;7400070;19;20035;-58
2022/11/06 05:30:35;;;;;;;2.90;1.50;;;;;;;12.50;100.00;98561.75;7398992;19;20010;-59
2022/11/06 05:33:02;;;;;;;1.85;1.75;;;;;;;12.60;100.00;98563.72;7396308;19;20015;-59
2022/11/06 05:35:28;;;;;;;4.88;1.58;;;;;;;12.62;100.00;98558.38;7399028;19;20018;-58
2022/11/06 05:38:01;;;;;;;8.27;1.85;;;;;;;12.57;100.00;98559.16;7398550;19;20031;-58
2022/11/06 05:40:28;;;;;;;8.90;1.95;;;;;;;12.57;100.00;98561.19;7398573;19;20011;-58
2022/11/06 05:42:54;;;;;;;9.98;0.98;;;;;;;12.51;100.00;98566.06;7398219;19;20038;-58
2022/11/06 05:45:20;;;;;;;22.73;2.90;;;;;;;12.49;100.00;98568.63;7398378;19;20011;-59
2022/11/06 05:47:46;;;;;;;4.03;1.00;;;;;;;12.61;100.00;98564.47;7397361;19;20042;-59
2022/11/06 05:50:12;;;;;;;4.20;1.00;;;;;;;12.65;100.00;98564.94;7397977;19;20026;-59
2022/11/06 05:52:38;;;;;;;2.20;1.33;;;;;;;12.63;100.00;98559.09;7397100;19;20347;-59
2022/11/06 05:55:06;;;;;;;7.07;2.53;;;;;;;12.70;100.00;98555.75;7401141;19;20017;-59
2022/11/06 05:57:32;;;;;;;5.35;1.70;;;;;;;12.74;100.00;98547.84;7398146;19;20011;-59
2022/11/06 05:59:58;;;;;;;1.50;1.40;;;;;;;12.76;100.00;98540.47;7398625;19;20017;-59
2022/11/06 06:02:24;;;;;;;1.30;1.20;;;;;;;12.65;100.00;98539.78;7398166;19;20014;-59
2022/11/06 06:04:50;;;;;;;12.93;1.23;;;;;;;12.70;100.00;98547.38;7396185;19;20491;-58
2022/11/06 06:07:16;;;;;;;5.82;1.35;;;;;;;12.75;100.00;98529.81;7401745;19;20011;-59
2022/11/06 06:09:42;;;;;;;5.90;1.95;;;;;;;12.70;100.00;98525.03;7397789;19;20010;-59
2022/11/06 06:12:12;;;;;;;2.35;2.00;;;;;;;12.76;100.00;98532.06;7398869;19;20378;-59
2022/11/06 06:14:38;;;;;;;3.40;1.17;;;;;;;12.83;100.00;98527.94;7397439;19;20011;-59
2022/11/06 06:17:05;;;;;;;15.45;0.90;;;;;;;12.86;100.00;98522.06;7397408;19;20372;-59
2022/11/06 06:19:31;;;;;;;3.13;0.95;;;;;;;12.99;100.00;98515.09;7397083;19;20013;-59
2022/11/06 06:21:57;;;;;;;17.65;1.15;;;;;;;13.00;100.00;98517.34;7397438;19;20040;-59
2022/11/06 06:24:23;;;;;;;2.47;1.17;;;;;;;12.98;100.00;98505.94;7396967;19;20018;-59
2022/11/06 06:26:49;;;;;;;3.58;1.02;;;;;;;13.01;100.00;98504.91;7394523;19;20011;-59
2022/11/06 06:29:16;;;;;;;15.30;2.65;;;;;;;12.94;100.00;98489.47;7400113;19;20007;-59
2022/11/06 06:31:42;;;;;;;2.53;1.02;;;;;;;12.90;100.00;98482.66;7399501;19;20106;-59
2022/11/06 06:34:08;;;;;;;1.38;1.13;;;;;;;12.93;100.00;98481.59;7396600;19;20011;-59
2022/11/06 06:36:34;;;;;;;3.10;1.38;;;;;;;12.97;100.00;98478.53;7396505;19;20010;-59
2022/11/06 06:39:00;;;;;;;6.72;1.40;;;;;;;12.94;100.00;98474.75;7395456;19;20014;-59
2022/11/06 06:41:27;;;;;;;5.18;0.85;;;;;;;12.86;100.00;98466.19;7398805;19;20031;-59
2022/11/06 06:43:53;;;;;;;3.13;1.58;;;;;;;12.83;100.00;98467.25;7395996;19;20475;-59
2022/11/06 06:46:19;;;;;;;0.98;0.85;;;;;;;12.88;100.00;98458.06;7394655;19;20010;-59
2022/11/06 06:48:45;;;;;;;2.63;0.57;;;;;;;12.87;100.00;98450.19;7395272;19;20501;-59
2022/11/06 06:51:11;;;;;;;3.22;1.15;;;;;;;12.80;100.00;98450.75;7397394;19;20020;-59
2022/11/06 06:53:37;;;;;;;0.73;0.73;;;;;;;12.78;100.00;98442.91;7395204;19;20014;-59
2022/11/06 06:56:04;;;;;;;2.13;1.27;;;;;;;12.79;100.00;98452.81;7395423;19;20007;-59
2022/11/06 06:58:30;;;;;;;12.32;1.92;;;;;;;12.75;100.00;98438.38;7396642;19;20013;-58
2022/11/06 07:01:01;;;;;;;4.63;1.65;;;;;;;12.76;100.00;98444.72;7396932;19;20477;-59
2022/11/06 07:03:27;;;;;;;3.63;1.83;;;;;;;12.70;100.00;98432.84;7392792;19;20073;-59
2022/11/06 07:05:53;;;;;;;7.65;1.70;;;;;;;12.70;100.00;98430.81;7395146;19;20338;-59
2022/11/06 07:08:19;;;;;;;4.05;1.90;;;;;;;12.55;100.00;98430.47;7394800;19;20017;-59
2022/11/06 07:10:45;;;;;;;7.03;1.45;;;;;;;12.57;100.00;98424.34;7396102;19;20021;-59
2022/11/06 07:13:11;;;;;;;1.85;0.80;;;;;;;12.72;100.00;98419.88;7394133;19;20024;-59
2022/11/06 07:15:37;;;;;;;3.13;1.70;;;;;;;12.89;100.00;98414.84;7393158;19;20015;-59
2022/11/06 07:18:05;;;;;;;4.15;1.58;;;;;;;12.88;100.00;98412.59;7390660;19;20010;-59
2022/11/06 07:20:32;;;;;;;2.22;0.98;;;;;;;12.98;100.00;98413.72;7393029;19;20014;-59
2022/11/06 07:22:59;;;;;;;3.47;1.15;;;;;;;12.97;100.00;98409.44;7391948;19;20034;-59
2022/11/06 07:25:25;;;;;;;1.60;0.65;;;;;;;12.94;100.00;98402.09;7391599;19;20477;-59
2022/11/06 07:27:51;;;;;;;1.15;0.68;;;;;;;12.96;100.00;98396.72;7389839;19;20014;-59
2022/11/06 07:30:17;;;;;;;8.10;1.15;;;;;;;12.97;100.00;98398.25;7393647;19;20369;-60
2022/11/06 07:32:43;;;;;;;2.10;0.50;;;;;;;13.01;100.00;98395.91;7395917;19;20341;-59
2022/11/06 07:35:09;;;;;;;0.40;0.40;;;;;;;13.22;100.00;98402.53;7395070;19;20410;-60
2022/11/06 07:37:36;;;;;;;1.13;1.00;;;;;;;13.23;100.00;98398.44;7394847;19;20006;-59
2022/11/06 07:40:02;;;;;;;1.38;1.13;;;;;;;13.28;100.00;98403.19;7393418;19;20010;-59
2022/11/06 07:42:28;;;;;;;9.93;1.55;;;;;;;13.29;100.00;98399.13;7398704;19;20049;-60
2022/11/06 07:44:59;;;;;;;2.47;1.00;;;;;;;13.35;100.00;98394.22;7393507;19;20018;-59
2022/11/06 07:47:26;;;;;;;2.80;1.52;;;;;;;13.36;100.00;98390.13;7394518;19;20026;-60
2022/11/06 07:49:52;;;;;;;2.10;1.02;;;;;;;13.37;100.00;98402.81;7395632;19;20021;-59
2022/11/06 07:52:19;;;;;;;2.33;1.02;;;;;;;13.45;100.00;98397.34;7393113;19;20006;-59
2022/11/06 07:54:45;;;;;;;7.57;1.05;;;;;;;13.45;100.00;98403.72;7394637;19;20006;-59
2022/11/06 07:57:11;;;;;;;7.72;1.40;;;;;;;13.53;100.00;98401.84;7394920;19;20006;-59
2022/11/06 07:59:37;;;;;;;0.60;0.60;;;;;;;13.51;100.00;98400.84;7394827;19;20014;-60
2022/11/06 08:02:03;;;;;;;2.05;1.35;;;;;;;13.54;100.00;98406.13;7393864;19;20014;-59
2022/11/06 08:04:29;;;;;;;2.00;0.77;;;;;;;13.61;100.00;98410.34;7393092;19;20011;-59
2022/11/06 08:06:56;;;;;;;6.93;1.38;;;;;;;13.59;100.00;98407.34;7393574;19;20066;-59
2022/11/06 08:09:24;;;;;;;4.53;2.10;;;;;;;13.63;100.00;98410.56;7394652;19;20021;-59
2022/11/06 08:11:51;;;;;;;5.35;2.33;;;;;;;13.67;100.00;98406.19;7395770;19;20099;-59
2022/11/06 08:14:17;;;;;;;9.93;1.00;;;;;;;13.71;100.00;98413.53;7393630;19;20028;-59
2022/11/06 08:16:43;;;;;;;5.20;0.93;;;;;;;13.85;100.00;98409.47;7392052;19;20011;-59
2022/11/06 08:19:09;;;;;;;3.58;1.30;;;;;;;14.00;100.00;98395.75;7392422;19;20017;-59
2022/11/06 08:21:35;;;;;;;8.20;1.98;;;;;;;14.14;100.00;98389.63;7396297;19;20006;-59
2022/11/06 08:24:02;;;;;;;6.45;1.92;;;;;;;14.12;100.00;98388.69;7393292;19;20491;-59
2022/11/06 08:26:28;;;;;;;0.52;0.47;;;;;;;14.04;100.00;98377.34;7392444;19;20049;-59
2022/11/06 08:28:56;;;;;;;3.80;1.38;;;;;;;14.03;100.00;98381.47;7391312;19;20406;-59
2022/11/06 08:31:23;;;;;;;9.45;1.45;;;;;;;13.99;100.00;98378.19;7395376;19;20020;-59
2022/11/06 08:33:49;;;;;;;2.25;1.48;;;;;;;13.94;100.00;98381.09;7389698;19;20499;-59
2022/11/06 08:36:15;;;;;;;2.80;0.85;;;;;;;13.92;100.00;98364.84;7392207;19;20364;-60
2022/11/06 08:38:41;;;;;;;1.15;1.05;;;;;;;13.94;100.00;98350.31;7392038;19;20380;-59
2022/11/06 08:41:10;;;;;;;3.85;0.98;;;;;;;13.73;100.00;98343.81;7395816;19;20013;-60
2022/11/06 08:43:37;;;;;;;1.15;1.05;;;;;;;13.61;100.00;98337.63;7392138;19;20018;-60
2022/11/06 08:46:05;;;;;;;1.10;0.73;;;;;;;13.47;100.00;98342.41;7391028;19;20070;-60
2022/11/06 08:48:32;;;;;;;1.90;0.90;;;;;;;13.49;100.00;98342.63;7392981;19;20019;-60
2022/11/06 08:50:58;;;;;;;2.80;1.23;;;;;;;13.66;100.00;98340.31;7394985;19;20015;-59
2022/11/06 08:53:24;;;;;;;4.68;0.57;;;;;;;13.60;100.00;98348.06;7396417;19;20082;-60
2022/11/06 08:55:51;;;;;;;9.75;1.58;;;;;;;13.71;100.00;98338.00;7405090;19;20014;-59
2022/11/06 08:58:17;;;;;;;7.28;1.27;;;;;;;13.87;100.00;98350.94;7399867;19;20006;-59
2022/11/06 09:00:43;;;;;;;0.32;0.22;;;;;;;14.16;100.00;98347.84;7403054;19;20014;-59
2022/11/06 09:03:12;;;;;;;8.30;1.17;;;;;;;14.34;100.00;98347.06;7397436;19;20479;-59
2022/11/06 09:05:43;;;;;;;1.00;0.85;;;;;;;14.24;100.00;98329.16;7400323;19;20014;-60
2022/11/06 09:08:10;;;;;;;1.58;1.48;;;;;;;14.27;100.00;98335.72;7400392;19;20527;-59
2022/11/06 09:10:38;;;;;;;16.88;1.83;;;;;;;14.40;100.00;98321.75;7401337;19;20018;-60
2022/11/06 09:13:05;;;;;;;7.20;2.03;;;;;;;14.60;100.00;98329.47;7398825;19;20015;-60
2022/11/06 09:15:32;;;;;;;5.25;1.23;;;;;;;14.71;100.00;98318.06;7399367;19;20471;-59
2022/11/06 09:17:58;;;;;;;3.65;1.88;;;;;;;14.76;100.00;98325.59;7399566;19;20015;-60
2022/11/06 09:20:25;;;;;;;1.55;0.50;;;;;;;14.87;100.00;98319.00;7402351;19;20500;-60
2022/11/06 09:22:52;;;;;;;14.48;1.85;;;;;;;15.02;100.00;98313.56;7399467;19;20043;-60
2022/11/06 09:25:18;;;;;;;1.90;1.10;;;;;;;15.18;100.00;98299.16;7399247;19;20006;-60
2022/11/06 09:27:47;;;;;;;2.15;1.35;;;;;;;15.44;100.00;98292.00;7397515;19;20039;-60
2022/11/06 09:30:16;;;;;;;8.68;1.98;;;;;;;15.59;100.00;98292.13;7398915;19;20070;-60
2022/11/06 09:32:48;;;;;;;1.33;1.23;;;;;;;15.39;100.00;98292.84;7398631;19;20367;-60
2022/11/06 09:35:14;;;;;;;4.55;1.63;;;;;;;15.34;100.00;98286.06;7398273;19;20342;-60
2022/11/06 09:37:41;;;;;;;1.27;0.60;;;;;;;15.37;100.00;98281.41;7399280;19;20010;-60
2022/11/06 09:40:20;;;;;;;1.35;0.70;;;;;;;15.44;100.00;98275.16;7399725;19;20336;-60
2022/11/06 09:42:53;;;;;;;1.75;0.55;;;;;;;15.35;100.00;98267.19;7398397;19;20016;-60
2022/11/06 09:45:23;;;;;;;7.38;0.82;;;;;;;15.42;100.00;98272.84;7398997;19;20043;-60
2022/11/06 09:48:04;;;;;;;2.58;1.15;;;;;;;15.54;100.00;98273.38;7398666;19;20018;-60
2022/11/06 09:50:35;;;;;;;0.95;0.70;;;;;;;15.73;100.00;98276.72;7400022;19;20364;-60
2022/11/06 09:53:14;;;;;;;1.10;0.57;;;;;;;15.86;100.00;98282.25;7397048;19;20015;-60
2022/11/06 09:55:43;;;;;;;1.85;0.95;;;;;;;15.86;100.00;98282.25;7401408;19;20017;-60
2022/11/06 09:58:14;;;;;;;4.25;1.35;;;;;;;15.75;100.00;98283.28;7397881;19;20007;-60
2022/11/06 10:00:41;;;;;;;0.93;0.77;;;;;;;15.75;100.00;98288.91;7400385;19;20010;-60
2022/11/06 10:03:07;;;;;;;6.43;1.40;;;;;;;15.89;100.00;98286.78;7395907;19;20033;-60
2022/11/06 10:05:36;;;;;;;4.47;0.93;;;;;;;15.97;100.00;98276.34;7396962;19;20014;-60
2022/11/06 10:08:06;;;;;;;2.95;0.98;;;;;;;16.10;100.00;98275.50;7397750;19;20014;-60
2022/11/06 10:11:04;;;;;;;1.45;0.38;;;;;;;16.25;100.00;98273.53;7398908;19;20379;-61
2022/11/06 10:13:45;;;;;;;4.70;1.05;;;;;;;16.37;100.00;98274.72;7396211;19;20371;-61
2022/11/06 10:16:23;;;;;;;5.32;1.45;;;;;;;16.47;100.00;98278.53;7397657;19;20014;-61
2022/11/06 10:19:19;;;;;;;11.25;1.10;;;;;;;16.44;100.00;98285.25;7398187;19;20021;-61
2022/11/06 10:21:51;;;;;;;6.15;1.60;;;;;;;16.64;100.00;98280.88;7401149;19;20019;-61
2022/11/06 10:24:22;;;;;;;4.63;0.38;;;;;;;16.74;100.00;98278.31;7396912;19;20050;-61
2022/11/06 10:26:55;;;;;;;10.77;1.08;;;;;;;16.62;100.00;98273.03;7397732;19;20026;-61
2022/11/06 10:29:29;;;;;;;5.70;0.63;;;;;;;16.68;100.00;98265.16;7397622;19;20018;-61
2022/11/06 10:32:08;;;;;;;9.82;0.77;;;;;;;16.78;100.00;98256.22;7394592;19;20018;-61
2022/11/06 10:34:52;;;;;;;3.83;0.65;;;;;;;16.72;100.00;98252.81;7397335;19;20014;-61
2022/11/06 10:37:42;;;;;;;1.98;0.65;;;;;;;16.66;100.00;98245.28;7396918;19;20491;-61
2022/11/06 10:40:21;;;;;;;1.77;0.67;;;;;;;16.68;100.00;98239.88;7398488;19;20014;-61
2022/11/06 10:42:58;;;;;;;5.18;1.42;;;;;;;16.43;100.00;98227.56;7396106;19;20239;-61
2022/11/06 10:45:27;;;;;;;1.40;0.57;;;;;;;16.36;100.00;98224.72;7394649;19;20749;-62
2022/11/06 10:47:58;;;;;;;1.48;0.80;;;;;;;16.36;100.00;98231.09;7396309;19;20003;-62
2022/11/06 10:50:33;;;;;;;5.72;0.80;;;;;;;16.37;100.00;98218.53;7398172;19;20329;-61
2022/11/06 10:53:07;;;;;;;0.50;0.20;;;;;;;16.36;100.00;98214.22;7397097;19;20018;-61
2022/11/06 10:55:58;;;;;;;3.10;0.17;;;;;;;16.30;100.00;98204.47;7398145;19;20017;-61
2022/11/06 10:58:31;;;;;;;0.68;0.38;;;;;;;16.19;100.00;98202.72;7392205;19;20029;-61
2022/11/06 11:01:04;;;;;;;1.02;0.60;;;;;;;16.16;100.00;98201.00;7397463;19;20018;-61
2022/11/06 11:03:34;;;;;;;2.22;0.75;;;;;;;16.06;100.00;98191.59;7394269;19;20471;-61
2022/11/06 11:06:03;;;;;;;0.80;0.37;;;;;;;16.04;100.00;98194.22;7395516;19;20011;-62
2022/11/06 11:08:32;;;;;;;1.40;0.47;;;;;;;16.11;100.00;98178.72;7395585;19;20052;-62
2022/11/06 11:11:25;;;;;;;2.05;0.63;;;;;;;16.18;100.00;98167.50;7397065;19;20026;-62
2022/11/06 11:14:00;;;;;;;1.67;0.60;;;;;;;16.21;100.00;98172.03;7393657;19;20333;-62
2022/11/06 11:16:28;;;;;;;2.33;0.70;;;;;;;16.25;100.00;98158.38;7393076;19;20029;-62
2022/11/06 11:19:22;;;;;;;0.68;0.47;;;;;;;16.38;100.00;98152.59;7392875;19;20019;-62
2022/11/06 11:21:57;;;;;;;2.75;0.57;;;;;;;16.62;100.00;98154.97;7399587;19;20010;-62
2022/11/06 11:24:24;;;;;;;3.58;1.42;;;;;;;16.79;100.00;98151.63;7395122;19;20040;-62
2022/11/06 11:26:54;;;;;;;1.42;1.02;;;;;;;17.12;100.00;98144.91;7395447;19;20015;-62
2022/11/06 11:29:28;;;;;;;2.95;0.85;;;;;;;17.22;100.00;98137.41;7395345;19;20010;-62
2022/11/06 11:32:16;;;;;;;1.55;0.80;;;;;;;17.45;100.00;98137.41;7392791;19;20014;-62
2022/11/06 11:34:46;;;;;;;2.08;0.50;;;;;;;17.53;100.00;98135.38;7395024;19;20019;-62
2022/11/06 11:37:24;;;;;;;5.68;1.85;;;;;;;17.66;100.00;98129.53;7392556;19;20018;-62
2022/11/06 11:39:50;;;;;;;6.75;1.13;;;;;;;17.59;100.00;98116.22;7394382;19;20003;-62
2022/11/06 11:42:23;;;;;;;4.20;1.88;;;;;;;17.23;100.00;98113.59;7397121;19;20345;-61
2022/11/06 11:45:07;;;;;;;5.95;1.00;;;;;;;17.22;100.00;98103.66;7395011;19;20011;-62
2022/11/06 11:47:35;;;;;;;0.85;0.50;;;;;;;17.46;100.00;98107.94;7394747;19;20022;-62
2022/11/06 11:50:32;;;;;;;4.20;0.70;;;;;;;17.77;100.00;98098.16;7393854;19;20386;-62
2022/11/06 11:53:10;;;;;;;0.77;0.65;;;;;;;17.76;100.00;98099.47;7394022;19;20010;-62